Time;durP1;ratioP1;P1;durP2;ratioP2;P2;SDS_P1;SDS_P2;PMS_P1;PMS_P2;Temp;Humidity;BMP_temperature;BMP_pressure;BME280_temperature;BME280_humidity;BME280_pressure;Samples;Min_cycle;Max_cycle;Signal;HPM_P1;HPM_P2
2021/05/15 00:00:11;;;;;;;0.65;0.10;;;21.90;47.90;;;;;;4992466;28;20030;-71
2021/05/15 00:02:39;;;;;;;1.90;0.10;;;22.20;45.10;;;;;;4997444;28;20117;-71
2021/05/15 00:05:09;;;;;;;0.30;0.30;;;21.70;45.20;;;;;;4994081;28;20393;-72
2021/05/15 00:07:36;;;;;;;0.65;0.10;;;21.50;47.40;;;;;;4999093;28;20029;-73
2021/05/15 00:10:06;;;;;;;0.57;0.10;;;21.10;48.50;;;;;;4996615;28;20029;-70
2021/05/15 00:12:34;;;;;;;1.42;0.32;;;20.20;50.80;;;;;;4990165;28;20028;-71
2021/05/15 00:15:03;;;;;;;1.48;0.22;;;20.10;49.40;;;;;;4994965;28;20053;-71
2021/05/15 00:17:30;;;;;;;0.65;0.10;;;19.30;51.50;;;;;;5000229;28;20070;-70
2021/05/15 00:19:58;;;;;;;1.10;0.25;;;18.80;53.60;;;;;;4996395;28;20099;-77
2021/05/15 00:22:25;;;;;;;0.15;0.10;;;18.40;55.10;;;;;;4999828;28;20492;-78
2021/05/15 00:24:53;;;;;;;0.28;0.10;;;19.30;52.90;;;;;;4998220;28;20029;-77
2021/05/15 00:27:20;;;;;;;0.73;0.10;;;19.50;52.90;;;;;;4994111;28;20034;-76
2021/05/15 00:29:47;;;;;;;0.30;0.08;;;19.50;54.50;;;;;;4995398;28;20038;-77
2021/05/15 00:32:15;;;;;;;0.63;0.10;;;19.00;54.10;;;;;;4996233;28;20062;-78
2021/05/15 00:34:42;;;;;;;1.27;0.10;;;18.60;55.10;;;;;;4996152;28;20370;-78
2021/05/15 00:37:09;;;;;;;0.45;0.10;;;18.30;55.10;;;;;;4992488;28;20061;-77
2021/05/15 00:39:37;;;;;;;0.88;0.10;;;18.00;56.70;;;;;;5001488;28;20030;-76
2021/05/15 00:42:05;;;;;;;1.25;0.20;;;17.80;56.10;;;;;;4994344;28;20030;-76
2021/05/15 00:44:45;;;;;;;0.10;0.10;;;17.80;57.10;;;;;;4994552;28;20041;-76
2021/05/15 00:47:23;;;;;;;0.50;0.10;;;18.60;55.60;;;;;;4990815;28;20022;-74
2021/05/15 00:49:52;;;;;;;1.10;0.10;;;18.80;55.00;;;;;;4994583;28;20053;-73
2021/05/15 00:52:22;;;;;;;3.08;0.20;;;18.60;54.70;;;;;;5000604;28;20064;-73
2021/05/15 00:54:51;;;;;;;0.73;0.08;;;18.30;54.80;;;;;;4996658;28;20030;-73
2021/05/15 00:57:19;;;;;;;0.22;0.10;;;18.00;55.80;;;;;;4991930;28;20082;-75
2021/05/15 00:59:47;;;;;;;0.20;0.10;;;17.90;55.80;;;;;;4991599;28;20026;-79
2021/05/15 01:02:14;;;;;;;0.10;0.05;;;17.80;56.40;;;;;;4992676;28;20362;-77
2021/05/15 01:04:41;;;;;;;0.00;0.00;;;17.80;56.50;;;;;;4992729;28;20511;-78
2021/05/15 01:07:11;;;;;;;0.20;0.10;;;18.20;56.80;;;;;;4993675;28;20465;-80
2021/05/15 01:09:39;;;;;;;0.20;0.00;;;19.10;54.80;;;;;;4996212;28;20101;-78
2021/05/15 01:12:08;;;;;;;0.80;0.10;;;19.70;54.30;;;;;;4990308;28;20030;-78
2021/05/15 01:14:38;;;;;;;0.30;0.20;;;20.10;53.10;;;;;;4998573;28;20029;-78
2021/05/15 01:17:10;;;;;;;0.70;0.25;;;21.00;52.00;;;;;;4996708;28;20030;-77
2021/05/15 01:19:38;;;;;;;0.15;0.10;;;22.20;48.60;;;;;;4998230;28;20034;-80
2021/05/15 01:22:13;;;;;;;0.47;0.20;;;23.00;48.40;;;;;;4996114;28;20042;-78
2021/05/15 01:24:43;;;;;;;0.10;0.10;;;23.50;47.70;;;;;;4992493;28;20038;-77
2021/05/15 01:27:13;;;;;;;1.17;0.10;;;24.00;46.00;;;;;;4991708;28;20081;-77
2021/05/15 01:29:43;;;;;;;0.05;0.00;;;24.90;45.90;;;;;;4991824;28;20576;-78
2021/05/15 01:32:11;;;;;;;0.22;0.10;;;24.10;44.30;;;;;;4989996;28;20030;-76
2021/05/15 01:34:41;;;;;;;0.30;0.10;;;24.10;46.50;;;;;;4990330;28;20121;-79
2021/05/15 01:37:08;;;;;;;4.20;0.75;;;23.80;45.70;;;;;;4992289;28;20034;-77
2021/05/15 01:39:35;;;;;;;0.65;0.28;;;24.00;48.40;;;;;;4990850;28;20037;-76
2021/05/15 01:42:03;;;;;;;0.52;0.20;;;24.20;44.10;;;;;;4990903;28;20100;-78
2021/05/15 01:44:33;;;;;;;0.38;0.10;;;24.40;45.20;;;;;;4991699;28;20050;-77
2021/05/15 01:47:01;;;;;;;0.85;0.35;;;25.10;45.70;;;;;;4987874;28;20028;-77
2021/05/15 01:49:28;;;;;;;1.42;0.10;;;24.70;45.90;;;;;;4993378;28;20050;-77
2021/05/15 01:51:55;;;;;;;0.65;0.10;;;24.20;43.50;;;;;;4990939;28;20045;-76
2021/05/15 01:54:23;;;;;;;1.77;0.10;;;23.80;44.30;;;;;;4987913;28;20824;-78
2021/05/15 01:56:50;;;;;;;0.70;0.00;;;23.60;44.00;;;;;;4988267;28;20058;-77
2021/05/15 01:59:18;;;;;;;0.00;0.00;;;23.40;45.40;;;;;;4989045;28;20555;-76
2021/05/15 02:01:45;;;;;;;2.17;0.30;;;22.80;48.30;;;;;;4984619;28;20101;-77
2021/05/15 02:04:12;;;;;;;0.00;0.00;;;23.70;46.80;;;;;;4992528;28;20188;-77
2021/05/15 02:06:40;;;;;;;1.25;0.10;;;22.90;46.60;;;;;;4991042;28;20026;-77
2021/05/15 02:09:07;;;;;;;0.10;0.10;;;22.30;46.70;;;;;;4984199;28;20045;-76
2021/05/15 02:11:35;;;;;;;0.32;0.00;;;21.50;47.90;;;;;;4985782;28;20022;-75
2021/05/15 02:14:03;;;;;;;0.47;0.20;;;20.80;50.40;;;;;;4988532;28;20046;-75
2021/05/15 02:16:30;;;;;;;0.40;0.13;;;20.40;49.00;;;;;;4992209;28;20711;-77
2021/05/15 02:18:58;;;;;;;0.75;0.08;;;19.70;49.90;;;;;;4989388;28;20038;-76
2021/05/15 02:21:25;;;;;;;0.20;0.00;;;19.40;53.20;;;;;;4988117;28;20018;-75
2021/05/15 02:23:53;;;;;;;0.13;0.00;;;19.30;54.70;;;;;;4987436;28;20181;-75
2021/05/15 02:26:20;;;;;;;0.32;0.10;;;19.30;53.40;;;;;;4985639;28;20026;-76
2021/05/15 02:28:48;;;;;;;0.10;0.00;;;19.20;51.50;;;;;;4983317;28;20630;-75
2021/05/15 02:31:15;;;;;;;1.27;0.10;;;19.10;53.10;;;;;;4993070;28;20387;-75
2021/05/15 02:33:43;;;;;;;0.00;0.00;;;19.00;54.10;;;;;;4988335;28;20026;-78
2021/05/15 02:36:10;;;;;;;0.13;0.10;;;19.60;55.40;;;;;;4987850;28;20109;-79
2021/05/15 02:38:38;;;;;;;0.00;0.00;;;19.00;59.40;;;;;;4991333;28;20038;-77
2021/05/15 02:41:05;;;;;;;1.45;0.10;;;18.40;62.60;;;;;;4989281;28;20026;-77
2021/05/15 02:43:32;;;;;;;0.10;0.05;;;17.90;65.50;;;;;;4993266;28;20084;-78
2021/05/15 02:46:00;;;;;;;1.30;0.10;;;17.60;71.10;;;;;;4988792;28;20080;-80
2021/05/15 02:48:27;;;;;;;0.95;0.10;;;18.00;75.60;;;;;;4990756;28;20444;-75
2021/05/15 02:50:55;;;;;;;0.60;0.10;;;17.70;79.10;;;;;;4984983;28;20115;-77
2021/05/15 02:53:22;;;;;;;0.10;0.10;;;17.70;75.70;;;;;;4987177;28;20387;-76
2021/05/15 02:55:49;;;;;;;0.00;0.00;;;18.50;73.50;;;;;;4993694;28;20493;-77
2021/05/15 02:58:18;;;;;;;0.20;0.00;;;19.50;70.70;;;;;;4994060;28;20026;-75
2021/05/15 03:00:45;;;;;;;0.80;0.00;;;18.90;70.20;;;;;;4996832;28;20030;-77
2021/05/15 03:03:12;;;;;;;1.55;0.10;;;18.10;69.30;;;;;;4987443;28;20069;-77
2021/05/15 03:05:40;;;;;;;0.00;0.00;;;17.50;69.60;;;;;;4991685;28;20018;-76
2021/05/15 03:08:07;;;;;;;0.00;0.00;;;17.40;71.10;;;;;;4991248;28;20509;-76
2021/05/15 03:10:35;;;;;;;0.05;0.00;;;17.30;69.10;;;;;;4987018;28;20440;-76
2021/05/15 03:13:02;;;;;;;0.00;0.00;;;17.10;67.70;;;;;;4994801;28;20080;-75
2021/05/15 03:15:30;;;;;;;0.73;0.20;;;17.00;66.30;;;;;;4986855;28;20073;-77
2021/05/15 03:17:57;;;;;;;0.63;0.30;;;16.90;65.10;;;;;;4995579;28;20034;-77
2021/05/15 03:20:26;;;;;;;0.57;0.00;;;16.80;63.60;;;;;;4994527;28;20109;-76
2021/05/15 03:22:53;;;;;;;0.00;0.00;;;17.20;63.80;;;;;;4991465;28;20052;-77
2021/05/15 03:25:22;;;;;;;0.40;0.20;;;17.00;61.80;;;;;;4989944;28;20039;-75
2021/05/15 03:27:49;;;;;;;1.13;0.10;;;17.50;60.70;;;;;;4989227;28;20026;-78
2021/05/15 03:30:18;;;;;;;0.05;0.00;;;18.30;59.40;;;;;;4992699;28;20040;-77
2021/05/15 03:32:45;;;;;;;0.80;0.00;;;18.70;56.30;;;;;;4992803;28;20053;-78
2021/05/15 03:35:14;;;;;;;0.90;0.00;;;18.20;56.10;;;;;;4999055;28;20036;-78
2021/05/15 03:37:41;;;;;;;0.20;0.00;;;17.60;59.30;;;;;;4991787;28;20029;-77
2021/05/15 03:40:10;;;;;;;1.25;0.00;;;17.40;59.50;;;;;;4988384;28;20025;-77
2021/05/15 03:42:38;;;;;;;0.70;0.00;;;17.70;60.00;;;;;;4990026;28;20031;-79
2021/05/15 03:45:07;;;;;;;0.32;0.00;;;17.60;59.20;;;;;;4992799;28;20046;-76
2021/05/15 03:47:35;;;;;;;0.10;0.00;;;17.30;60.20;;;;;;4989904;28;20038;-77
2021/05/15 03:50:03;;;;;;;0.00;0.00;;;17.10;59.00;;;;;;4992144;28;20043;-78
2021/05/15 03:52:31;;;;;;;0.00;0.00;;;17.00;58.80;;;;;;4993864;28;20244;-76
2021/05/15 03:54:58;;;;;;;0.05;0.00;;;16.80;59.70;;;;;;4993184;28;20025;-75
2021/05/15 03:57:26;;;;;;;0.03;0.00;;;16.70;58.10;;;;;;4998448;28;20014;-79
2021/05/15 03:59:53;;;;;;;0.20;0.00;;;16.70;58.80;;;;;;4994614;28;20088;-76
2021/05/15 04:02:23;;;;;;;0.08;0.00;;;16.70;57.80;;;;;;4992903;28;20290;-77
2021/05/15 04:04:51;;;;;;;0.20;0.10;;;16.70;57.70;;;;;;4991418;28;20050;-77
2021/05/15 04:07:19;;;;;;;1.02;0.10;;;16.80;57.90;;;;;;4991388;28;20056;-77
2021/05/15 04:09:47;;;;;;;0.73;0.08;;;16.80;57.10;;;;;;4990543;28;20068;-76
2021/05/15 04:12:15;;;;;;;0.17;0.13;;;16.60;57.50;;;;;;4990260;28;20441;-78
2021/05/15 04:15:01;;;;;;;1.85;0.00;;;16.60;57.90;;;;;;4989757;28;20026;-77
2021/05/15 04:17:29;;;;;;;1.33;0.22;;;16.50;57.20;;;;;;4994969;28;20030;-77
2021/05/15 04:19:59;;;;;;;0.65;0.10;;;16.60;56.10;;;;;;4990564;28;20489;-77
2021/05/15 04:22:27;;;;;;;0.20;0.10;;;16.50;56.80;;;;;;4991528;28;20041;-77
2021/05/15 04:24:59;;;;;;;0.45;0.00;;;16.60;55.90;;;;;;4996013;28;20062;-77
2021/05/15 04:27:27;;;;;;;0.65;0.00;;;16.60;56.90;;;;;;4992727;28;20030;-77
2021/05/15 04:29:55;;;;;;;0.68;0.22;;;16.70;55.50;;;;;;4999158;28;20099;-79
2021/05/15 04:32:22;;;;;;;0.80;0.10;;;16.70;51.50;;;;;;4996732;28;20263;-78
2021/05/15 04:34:50;;;;;;;0.43;0.10;;;16.70;51.60;;;;;;4996280;28;20045;-75
2021/05/15 04:37:17;;;;;;;0.00;0.00;;;16.60;50.10;;;;;;4991578;28;20472;-76
2021/05/15 04:39:45;;;;;;;3.17;0.20;;;16.70;51.40;;;;;;4992878;28;20030;-80
2021/05/15 04:42:12;;;;;;;0.13;0.00;;;16.70;52.30;;;;;;4998724;28;20596;-79
2021/05/15 04:44:39;;;;;;;0.40;0.03;;;16.70;52.30;;;;;;4992808;28;20076;-76
2021/05/15 04:47:07;;;;;;;2.95;0.10;;;16.70;52.00;;;;;;4999757;28;20557;-76
2021/05/15 04:49:34;;;;;;;0.10;0.00;;;16.70;51.60;;;;;;4997919;28;20097;-77
2021/05/15 04:52:01;;;;;;;0.38;0.10;;;16.50;51.80;;;;;;4993335;28;20032;-79
2021/05/15 04:54:29;;;;;;;0.20;0.00;;;16.50;53.20;;;;;;4993401;28;20540;-77
2021/05/15 04:56:56;;;;;;;1.75;0.25;;;16.40;53.10;;;;;;4995377;28;20042;-82
2021/05/15 04:59:23;;;;;;;0.50;0.00;;;16.30;54.30;;;;;;4994936;28;20028;-81
2021/05/15 05:01:51;;;;;;;0.73;0.10;;;16.10;54.10;;;;;;5010024;28;20036;-79
2021/05/15 05:04:18;;;;;;;3.78;0.20;;;16.10;53.70;;;;;;4991665;28;20034;-80
2021/05/15 05:06:46;;;;;;;0.47;0.00;;;16.00;50.70;;;;;;5001157;28;20088;-79
2021/05/15 05:09:13;;;;;;;0.35;0.10;;;16.00;51.60;;;;;;5000464;28;20398;-78
2021/05/15 05:11:40;;;;;;;0.55;0.20;;;16.10;52.40;;;;;;4995987;28;20137;-77
2021/05/15 05:14:08;;;;;;;0.77;0.10;;;16.10;51.30;;;;;;4995445;28;20496;-79
2021/05/15 05:16:35;;;;;;;0.10;0.00;;;16.30;51.70;;;;;;4996471;28;20452;-79
2021/05/15 05:19:03;;;;;;;0.45;0.20;;;16.30;50.20;;;;;;4992718;28;21134;-78
2021/05/15 05:21:30;;;;;;;0.32;0.10;;;16.30;51.70;;;;;;4994636;28;20113;-81
2021/05/15 05:23:57;;;;;;;2.08;0.10;;;16.30;52.70;;;;;;4996538;28;20061;-79
2021/05/15 05:26:25;;;;;;;0.43;0.10;;;16.30;53.40;;;;;;4996778;28;20052;-77
2021/05/15 05:28:52;;;;;;;0.47;0.20;;;16.30;52.10;;;;;;4994010;28;20137;-77
2021/05/15 05:31:21;;;;;;;0.10;0.10;;;16.40;50.80;;;;;;4995712;28;20018;-78
2021/05/15 05:33:49;;;;;;;0.43;0.05;;;16.40;51.20;;;;;;4998369;28;20100;-81
2021/05/15 05:36:16;;;;;;;0.20;0.00;;;16.40;50.60;;;;;;4997416;28;20101;-82
2021/05/15 05:38:43;;;;;;;1.65;0.10;;;16.40;51.30;;;;;;4995371;28;20836;-79
2021/05/15 05:41:11;;;;;;;0.95;0.10;;;16.40;51.10;;;;;;4994991;28;20307;-80
2021/05/15 05:43:38;;;;;;;0.22;0.10;;;16.50;50.90;;;;;;4996847;28;21036;-80
2021/05/15 05:46:05;;;;;;;0.20;0.20;;;16.50;48.90;;;;;;4990233;28;20041;-81
2021/05/15 05:48:33;;;;;;;1.65;0.30;;;16.50;49.80;;;;;;5002169;28;20492;-81
2021/05/15 05:51:00;;;;;;;0.10;0.10;;;16.50;51.00;;;;;;4998655;28;20564;-81
2021/05/15 05:53:27;;;;;;;1.60;0.10;;;16.60;50.30;;;;;;4999032;28;20029;-82
2021/05/15 05:55:55;;;;;;;0.30;0.10;;;16.60;49.50;;;;;;4993779;28;20025;-81
2021/05/15 05:58:22;;;;;;;0.10;0.10;;;16.50;50.10;;;;;;4994572;28;20021;-79
2021/05/15 06:00:51;;;;;;;2.75;0.20;;;16.50;49.50;;;;;;4992664;28;20030;-81
2021/05/15 06:03:18;;;;;;;1.15;0.10;;;16.60;49.60;;;;;;4994131;28;20475;-80
2021/05/15 06:05:45;;;;;;;0.57;0.10;;;16.40;49.40;;;;;;4995804;28;20029;-79
2021/05/15 06:08:13;;;;;;;0.05;0.03;;;16.30;49.50;;;;;;4992911;28;20030;-77
2021/05/15 06:10:41;;;;;;;0.57;0.10;;;16.40;50.40;;;;;;4992729;28;20036;-78
2021/05/15 06:13:10;;;;;;;1.45;0.05;;;16.30;51.40;;;;;;5001320;28;20515;-79
2021/05/15 06:15:38;;;;;;;0.30;0.25;;;16.20;51.10;;;;;;4994357;28;20219;-80
2021/05/15 06:18:06;;;;;;;0.10;0.10;;;16.30;51.40;;;;;;4994281;28;20048;-78
2021/05/15 06:20:34;;;;;;;0.20;0.10;;;16.40;51.80;;;;;;4991269;28;20026;-77
2021/05/15 06:23:02;;;;;;;1.08;0.15;;;16.40;52.50;;;;;;4990918;28;20141;-77
2021/05/15 06:25:29;;;;;;;0.98;0.40;;;16.30;51.80;;;;;;4992003;28;20025;-80
2021/05/15 06:27:56;;;;;;;0.22;0.10;;;16.20;52.00;;;;;;4994798;28;20049;-77
2021/05/15 06:30:24;;;;;;;1.90;0.10;;;16.00;52.00;;;;;;4996637;28;20025;-80
2021/05/15 06:32:51;;;;;;;0.10;0.10;;;15.90;52.20;;;;;;4994471;28;20034;-78
2021/05/15 06:35:19;;;;;;;0.35;0.10;;;15.70;53.10;;;;;;4989689;28;20062;-79
2021/05/15 06:37:46;;;;;;;0.43;0.20;;;15.60;54.60;;;;;;4991760;28;20026;-80
2021/05/15 06:40:14;;;;;;;1.58;0.30;;;15.40;53.90;;;;;;4990212;28;20117;-79
2021/05/15 06:42:41;;;;;;;2.53;0.40;;;15.30;54.10;;;;;;4995829;28;20034;-77
2021/05/15 06:45:09;;;;;;;0.45;0.25;;;15.00;54.50;;;;;;4989526;28;20085;-77
2021/05/15 06:47:38;;;;;;;1.17;0.30;;;14.90;55.30;;;;;;4994129;28;20050;-77
2021/05/15 06:50:09;;;;;;;1.27;0.40;;;14.70;56.20;;;;;;4995357;28;20042;-80
2021/05/15 06:52:37;;;;;;;0.40;0.20;;;14.70;56.50;;;;;;4998456;28;20092;-79
2021/05/15 06:55:08;;;;;;;0.82;0.20;;;14.50;56.90;;;;;;4999134;28;20029;-79
2021/05/15 06:57:35;;;;;;;0.52;0.20;;;14.50;57.00;;;;;;5001839;28;20489;-81
2021/05/15 07:00:03;;;;;;;1.33;0.75;;;14.40;57.20;;;;;;4997964;28;20342;-80
2021/05/15 07:02:31;;;;;;;0.40;0.20;;;14.30;57.30;;;;;;4998035;28;20068;-82
2021/05/15 07:04:58;;;;;;;0.35;0.20;;;14.30;58.10;;;;;;4993532;28;20036;-81
2021/05/15 07:07:25;;;;;;;0.80;0.10;;;14.20;57.70;;;;;;4995250;28;20026;-79
2021/05/15 07:09:53;;;;;;;1.00;0.10;;;14.10;57.70;;;;;;4995117;28;20054;-79
2021/05/15 07:12:22;;;;;;;0.28;0.10;;;14.00;58.80;;;;;;4996160;28;20030;-79
2021/05/15 07:14:50;;;;;;;1.55;0.40;;;14.00;57.70;;;;;;4996030;28;20041;-79
2021/05/15 07:17:25;;;;;;;0.60;0.20;;;13.90;57.50;;;;;;4995950;28;20030;-79
2021/05/15 07:19:53;;;;;;;0.10;0.10;;;13.90;58.00;;;;;;4992165;28;20440;-80
2021/05/15 07:22:24;;;;;;;0.30;0.10;;;13.80;58.00;;;;;;4998418;28;20053;-81
2021/05/15 07:24:59;;;;;;;1.50;0.47;;;13.80;58.30;;;;;;4999215;28;20034;-83
2021/05/15 07:27:28;;;;;;;0.40;0.20;;;13.70;58.80;;;;;;5001261;28;20048;-81
2021/05/15 07:29:56;;;;;;;2.17;0.30;;;13.60;60.30;;;;;;4996472;28;20488;-80
2021/05/15 07:32:25;;;;;;;1.35;0.38;;;13.60;59.50;;;;;;4990422;28;20033;-79
2021/05/15 07:34:52;;;;;;;1.60;0.10;;;13.50;60.60;;;;;;4999152;28;20093;-80
2021/05/15 07:37:20;;;;;;;1.75;0.30;;;13.50;61.20;;;;;;4999792;28;20073;-81
2021/05/15 07:39:48;;;;;;;1.80;0.30;;;13.30;60.70;;;;;;4999671;28;20065;-80
2021/05/15 07:42:15;;;;;;;1.15;0.17;;;13.30;60.40;;;;;;4993108;28;20140;-81
2021/05/15 07:44:43;;;;;;;1.23;0.20;;;13.20;60.30;;;;;;5002054;28;20096;-80
2021/05/15 07:47:11;;;;;;;0.82;0.28;;;13.20;60.00;;;;;;4997622;28;20453;-80
2021/05/15 07:49:39;;;;;;;0.77;0.10;;;13.20;60.00;;;;;;4999196;28;20033;-80
2021/05/15 07:52:06;;;;;;;1.45;0.52;;;13.20;60.60;;;;;;5001975;28;20598;-81
2021/05/15 07:54:33;;;;;;;0.95;0.30;;;13.10;60.70;;;;;;4997764;28;20029;-80
2021/05/15 07:57:01;;;;;;;1.42;0.68;;;13.10;60.80;;;;;;4996578;28;20116;-81
2021/05/15 07:59:28;;;;;;;0.77;0.45;;;13.00;60.30;;;;;;4998060;28;20042;-80
2021/05/15 08:01:56;;;;;;;2.58;0.82;;;13.00;60.20;;;;;;5003416;28;20030;-81
2021/05/15 08:04:23;;;;;;;1.15;0.52;;;13.00;60.70;;;;;;4993879;28;20583;-80
2021/05/15 08:06:51;;;;;;;0.55;0.30;;;13.10;60.30;;;;;;4993337;28;20613;-79
2021/05/15 08:09:18;;;;;;;1.05;0.30;;;13.00;60.80;;;;;;4994829;28;20480;-81
2021/05/15 08:11:46;;;;;;;1.00;0.30;;;12.90;60.80;;;;;;4997982;28;20056;-80
2021/05/15 08:14:13;;;;;;;0.88;0.30;;;12.90;60.70;;;;;;4996500;28;20046;-81
2021/05/15 08:16:44;;;;;;;0.75;0.30;;;12.90;61.20;;;;;;4990723;28;20038;-81
2021/05/15 08:19:11;;;;;;;0.28;0.20;;;12.80;60.90;;;;;;4981043;28;20038;-79
2021/05/15 08:21:38;;;;;;;0.65;0.30;;;12.80;60.50;;;;;;4996632;28;20489;-87
2021/05/15 08:24:06;;;;;;;0.38;0.20;;;12.80;60.80;;;;;;4994279;28;20038;-82
2021/05/15 08:26:36;;;;;;;0.30;0.20;;;12.80;61.20;;;;;;4995967;28;20026;-79
2021/05/15 08:29:07;;;;;;;0.32;0.20;;;12.80;60.60;;;;;;4987604;28;20089;-78
2021/05/15 08:31:36;;;;;;;0.90;0.35;;;12.70;60.20;;;;;;4993583;28;20034;-82
2021/05/15 08:34:07;;;;;;;0.95;0.28;;;12.70;59.60;;;;;;4991659;28;20525;-83
2021/05/15 08:36:35;;;;;;;0.65;0.20;;;12.70;60.50;;;;;;4998213;28;20531;-81
2021/05/15 08:39:05;;;;;;;0.45;0.20;;;12.70;60.20;;;;;;4977438;28;20042;-80
2021/05/15 08:41:34;;;;;;;0.47;0.20;;;12.70;59.90;;;;;;4992905;28;20088;-81
2021/05/15 08:44:06;;;;;;;1.90;0.30;;;12.60;60.40;;;;;;4988417;28;20381;-80
2021/05/15 08:46:34;;;;;;;0.93;0.10;;;12.50;60.40;;;;;;4992934;28;20026;-83
2021/05/15 08:49:06;;;;;;;0.25;0.10;;;12.50;60.40;;;;;;4988411;28;20034;-81
2021/05/15 08:51:33;;;;;;;0.32;0.10;;;12.50;60.90;;;;;;4996061;28;20384;-81
2021/05/15 08:54:01;;;;;;;0.82;0.20;;;12.50;60.60;;;;;;4980668;28;20133;-82
2021/05/15 08:56:29;;;;;;;3.60;0.50;;;12.40;61.50;;;;;;4986482;28;20260;-83
2021/05/15 08:58:57;;;;;;;1.67;0.40;;;12.50;60.80;;;;;;4986248;28;20104;-80
2021/05/15 09:01:25;;;;;;;1.65;0.50;;;12.40;62.30;;;;;;4991838;28;20089;-81
2021/05/15 09:03:53;;;;;;;0.30;0.20;;;12.30;61.80;;;;;;4987823;28;20112;-82
2021/05/15 09:06:20;;;;;;;0.30;0.20;;;12.30;62.00;;;;;;4993618;28;20373;-81
2021/05/15 09:08:49;;;;;;;2.13;0.50;;;12.20;62.10;;;;;;4993598;28;20034;-81
2021/05/15 09:11:17;;;;;;;2.70;0.43;;;12.10;62.80;;;;;;4998852;28;20472;-80
2021/05/15 09:13:53;;;;;;;0.20;0.20;;;12.10;62.10;;;;;;5001852;28;20353;-81
2021/05/15 09:16:21;;;;;;;1.88;0.35;;;12.10;62.50;;;;;;4996544;28;20023;-81
2021/05/15 09:18:49;;;;;;;0.30;0.30;;;12.00;62.20;;;;;;4993548;28;20037;-81
2021/05/15 09:21:21;;;;;;;0.45;0.30;;;11.90;61.40;;;;;;4989159;28;20088;-81
2021/05/15 09:23:50;;;;;;;1.20;0.75;;;11.90;61.70;;;;;;4998692;28;20038;-78
2021/05/15 09:26:21;;;;;;;2.88;0.73;;;11.90;61.60;;;;;;4992088;28;20153;-77
2021/05/15 09:28:51;;;;;;;2.10;0.40;;;11.90;62.30;;;;;;4993143;28;20061;-80
2021/05/15 09:31:23;;;;;;;0.90;0.50;;;11.90;61.30;;;;;;4980613;28;20642;-78
2021/05/15 09:33:53;;;;;;;0.82;0.30;;;11.90;61.60;;;;;;4973482;28;20026;-79
2021/05/15 09:36:23;;;;;;;0.80;0.57;;;11.90;61.70;;;;;;4989876;28;20041;-79
2021/05/15 09:39:08;;;;;;;2.78;0.77;;;11.90;61.50;;;;;;4979821;28;20562;-81
2021/05/15 09:41:39;;;;;;;0.98;0.50;;;11.80;61.60;;;;;;4995259;28;20064;-79
2021/05/15 09:44:09;;;;;;;0.80;0.52;;;11.90;61.20;;;;;;4992385;28;20033;-78
2021/05/15 09:46:45;;;;;;;2.95;0.40;;;11.80;61.40;;;;;;4990279;28;20081;-81
2021/05/15 09:49:14;;;;;;;0.30;0.20;;;11.80;61.50;;;;;;4993089;28;20118;-79
2021/05/15 09:51:57;;;;;;;0.90;0.40;;;11.80;61.50;;;;;;4995019;28;20436;-76
2021/05/15 09:54:27;;;;;;;2.92;0.80;;;11.80;61.80;;;;;;4989080;28;20156;-79
2021/05/15 09:57:02;;;;;;;2.47;0.77;;;11.70;61.80;;;;;;4995134;28;20562;-79
2021/05/15 09:59:30;;;;;;;3.33;1.80;;;11.70;62.30;;;;;;4989854;28;20030;-82
2021/05/15 10:02:00;;;;;;;1.58;0.77;;;11.70;62.30;;;;;;4991400;28;20670;-80
2021/05/15 10:04:29;;;;;;;1.13;0.90;;;11.70;62.80;;;;;;4989137;28;20045;-78
2021/05/15 10:06:57;;;;;;;1.98;1.02;;;11.70;62.90;;;;;;4985745;28;20516;-79
2021/05/15 10:09:35;;;;;;;2.50;0.95;;;11.60;63.80;;;;;;4975674;28;20093;-80
2021/05/15 10:12:05;;;;;;;4.35;1.35;;;11.60;63.10;;;;;;4976746;28;20903;-81
2021/05/15 10:14:33;;;;;;;5.15;1.15;;;11.50;62.90;;;;;;4988745;28;20053;-78
2021/05/15 10:17:01;;;;;;;3.55;1.15;;;11.40;63.30;;;;;;4989633;28;20026;-78
2021/05/15 10:19:29;;;;;;;1.88;0.80;;;11.40;63.80;;;;;;4980639;28;20034;-80
2021/05/15 10:21:58;;;;;;;2.25;0.77;;;11.40;63.70;;;;;;4997883;28;20117;-80
2021/05/15 10:24:30;;;;;;;1.08;0.60;;;11.30;64.00;;;;;;4991097;28;20038;-79
2021/05/15 10:27:05;;;;;;;1.30;0.70;;;11.30;64.20;;;;;;4993614;28;20069;-78
2021/05/15 10:29:41;;;;;;;2.60;0.63;;;11.30;64.80;;;;;;4989448;28;20029;-81
2021/05/15 10:32:36;;;;;;;3.20;0.80;;;11.30;65.00;;;;;;4976875;28;20022;-77
2021/05/15 10:35:05;;;;;;;2.13;0.68;;;11.30;66.20;;;;;;4975696;28;20039;-79
2021/05/15 10:37:43;;;;;;;2.22;0.80;;;11.20;66.80;;;;;;4984729;28;20120;-78
2021/05/15 10:40:19;;;;;;;2.08;0.82;;;11.10;67.70;;;;;;4988564;28;20529;-78
2021/05/15 10:42:59;;;;;;;1.85;0.65;;;11.00;68.60;;;;;;4991309;28;20030;-80
2021/05/15 10:45:40;;;;;;;7.45;0.77;;;10.90;70.40;;;;;;4990232;28;20038;-78
2021/05/15 10:48:23;;;;;;;1.60;0.63;;;10.80;69.50;;;;;;4986382;28;20088;-81
2021/05/15 10:50:55;;;;;;;1.15;0.40;;;10.70;69.70;;;;;;4985243;28;20048;-80
2021/05/15 10:53:25;;;;;;;0.63;0.20;;;10.70;68.80;;;;;;4992978;28;20096;-80
2021/05/15 10:56:17;;;;;;;0.70;0.43;;;10.70;68.40;;;;;;4985653;28;20031;-80
2021/05/15 10:58:47;;;;;;;0.55;0.38;;;10.70;68.80;;;;;;4987007;28;20056;-79
2021/05/15 11:01:19;;;;;;;0.30;0.20;;;10.60;69.00;;;;;;4987387;28;20022;-79
2021/05/15 11:03:48;;;;;;;0.38;0.30;;;10.60;70.60;;;;;;4990038;28;20034;-81
2021/05/15 11:06:29;;;;;;;0.75;0.38;;;10.60;71.50;;;;;;4985713;28;20122;-78
2021/05/15 11:09:06;;;;;;;0.63;0.30;;;10.50;71.70;;;;;;4980775;28;20026;-79
2021/05/15 11:11:37;;;;;;;0.68;0.40;;;10.50;71.00;;;;;;4991829;28;20030;-80
2021/05/15 11:14:23;;;;;;;0.75;0.30;;;10.50;70.70;;;;;;4984476;28;20037;-81
2021/05/15 11:17:06;;;;;;;0.38;0.20;;;10.40;70.60;;;;;;4976999;28;20130;-79
2021/05/15 11:19:34;;;;;;;0.52;0.40;;;10.40;70.70;;;;;;4988743;28;20031;-79
2021/05/15 11:22:02;;;;;;;1.15;0.30;;;10.50;70.80;;;;;;4989839;28;20030;-79
2021/05/15 11:24:37;;;;;;;0.35;0.20;;;10.50;70.60;;;;;;4983412;28;20673;-78
2021/05/15 11:27:16;;;;;;;1.35;0.20;;;10.50;71.10;;;;;;4975529;28;20603;-81
2021/05/15 11:29:44;;;;;;;0.93;0.47;;;10.50;71.10;;;;;;4984739;28;20065;-81
2021/05/15 11:32:13;;;;;;;1.98;1.23;;;10.40;71.70;;;;;;4975275;28;20138;-82
2021/05/15 11:34:42;;;;;;;0.95;0.25;;;10.40;72.20;;;;;;4977287;28;20069;-82
2021/05/15 11:37:14;;;;;;;1.48;0.57;;;10.40;72.20;;;;;;4982189;28;20144;-81
2021/05/15 11:39:42;;;;;;;4.18;1.00;;;10.40;72.20;;;;;;4983364;28;20031;-80
2021/05/15 11:42:13;;;;;;;3.58;0.98;;;10.40;72.20;;;;;;4981412;28;20027;-81
2021/05/15 11:44:42;;;;;;;1.90;0.63;;;10.40;71.90;;;;;;4979733;28;20522;-78
2021/05/15 11:47:12;;;;;;;4.00;1.38;;;10.40;72.40;;;;;;4973048;28;20038;-78
2021/05/15 11:49:40;;;;;;;1.23;0.85;;;10.40;72.50;;;;;;4980639;28;20058;-77
2021/05/15 11:52:11;;;;;;;1.05;0.52;;;10.40;72.10;;;;;;4981548;28;20018;-79
2021/05/15 11:54:39;;;;;;;1.15;0.80;;;10.40;72.70;;;;;;4983239;28;20050;-82
2021/05/15 11:57:06;;;;;;;2.35;1.60;;;10.40;72.80;;;;;;4981657;28;20030;-77
2021/05/15 11:59:36;;;;;;;2.40;1.20;;;10.30;72.20;;;;;;4981356;28;20113;-78
2021/05/15 12:02:04;;;;;;;2.25;1.25;;;10.40;72.50;;;;;;4993106;28;20081;-78
2021/05/15 12:04:31;;;;;;;2.20;1.00;;;10.40;72.30;;;;;;4992623;28;20534;-77
2021/05/15 12:07:07;;;;;;;1.38;0.90;;;10.40;72.20;;;;;;4989132;28;20033;-76
2021/05/15 12:09:34;;;;;;;1.20;0.90;;;10.30;72.80;;;;;;4988970;28;20038;-79
2021/05/15 12:12:08;;;;;;;0.85;0.45;;;10.20;73.20;;;;;;4993315;28;20088;-78
2021/05/15 12:14:42;;;;;;;1.33;0.93;;;10.30;74.10;;;;;;4987928;28;20073;-78
2021/05/15 12:17:17;;;;;;;1.40;0.40;;;10.20;74.00;;;;;;4983549;28;20481;-78
2021/05/15 12:19:57;;;;;;;0.32;0.30;;;10.20;73.80;;;;;;4977127;28;20208;-79
2021/05/15 12:22:28;;;;;;;2.92;0.40;;;10.20;74.20;;;;;;4983513;28;20025;-77
2021/05/15 12:24:56;;;;;;;0.32;0.20;;;10.20;73.70;;;;;;4987635;28;20034;-81
2021/05/15 12:27:24;;;;;;;1.27;0.30;;;10.20;73.60;;;;;;4987953;28;20018;-79
2021/05/15 12:30:07;;;;;;;0.82;0.40;;;10.20;74.50;;;;;;4984718;28;20034;-79
2021/05/15 12:32:37;;;;;;;3.50;0.65;;;10.20;74.80;;;;;;4984054;28;20042;-82
2021/05/15 12:35:09;;;;;;;0.93;0.30;;;10.10;75.40;;;;;;4975472;28;20034;-79
2021/05/15 12:37:39;;;;;;;0.55;0.55;;;10.00;75.90;;;;;;4977481;28;20038;-76
2021/05/15 12:40:09;;;;;;;0.50;0.30;;;9.80;76.40;;;;;;4989736;28;20138;-82
2021/05/15 12:42:37;;;;;;;0.75;0.30;;;9.80;77.80;;;;;;4997263;28;20034;-77
2021/05/15 12:45:22;;;;;;;1.58;0.55;;;9.70;79.60;;;;;;4994199;28;20046;-78
2021/05/15 12:47:51;;;;;;;2.50;0.55;;;9.60;80.00;;;;;;4996899;28;20060;-82
2021/05/15 12:50:27;;;;;;;0.95;0.70;;;9.50;80.90;;;;;;4993797;28;20084;-77
2021/05/15 12:53:12;;;;;;;3.97;1.23;;;9.50;80.20;;;;;;4992283;28;20026;-77
2021/05/15 12:55:53;;;;;;;2.30;1.60;;;9.40;79.80;;;;;;4998570;28;20030;-84
2021/05/15 12:58:22;;;;;;;7.53;5.15;;;9.40;79.60;;;;;;5000077;28;20037;-79